HEMA

Marsa Alam International Airport

Marsa Alam, Egypt
METAR HEMA 170100Z 29011KT CAVOK 17/11 Q1019 NOSIG
Observed Flight Rules
Dec-17 @ 01:00 UTC (an hour ago) Visual Flight Rules
Wind Visibility Clouds
290° at 11 knots 10,000+ meters
  • Clear skies
Temperatures Readings
Current 17°C / 63°F
Dewpoint 11°C / 52°F
Humidity 68%
Altimeter 30.09" Hg
Pressure 1019 hPa
Elevation 77
METAR HEMA 170100Z 29011KT CAVOK 17/11 Q1019 NOSIG
Observed Flight Rules
Dec-17 @ 01:00 UTC
(an hour ago)
VFR
Wind Visibility
290° at 11 knots 10,000+ meters
Clouds
  • Clear skies
Temperature Dewpoint
17°C / 63°F 11°C / 52°F
Humidity Altimeter Pressure
68% 30.09" Hg 1019 hPa